createdAt,value
2023-02-18T04:44:30.695Z,31.27
2023-02-18T04:47:00.245Z,29.92
2023-02-18T04:49:29.852Z,32.13
2023-02-18T04:51:59.821Z,30.33
2023-02-18T04:54:29.432Z,30.25
2023-02-18T04:56:59.172Z,30.60
2023-02-18T04:59:28.930Z,30.58
2023-02-18T05:01:58.546Z,29.95
2023-02-18T05:04:28.291Z,28.08
2023-02-18T05:06:57.997Z,27.75
2023-02-18T05:09:27.698Z,27.25
2023-02-18T05:11:57.245Z,26.98
2023-02-18T05:14:26.917Z,28.08
2023-02-18T05:16:56.661Z,29.45
2023-02-18T05:19:26.256Z,27.67
2023-02-18T05:21:55.877Z,28.27
2023-02-18T05:24:25.530Z,28.70
2023-02-18T05:26:55.099Z,28.13
2023-02-18T05:29:24.779Z,27.40
2023-02-18T05:31:54.446Z,27.10
2023-02-18T05:34:24.131Z,28.30
2023-02-18T05:36:53.942Z,28.52
2023-02-18T05:39:23.488Z,27.80
2023-02-18T05:41:53.080Z,27.77
2023-02-18T05:44:32.242Z,27.67
2023-02-18T05:47:11.545Z,27.52
2023-02-18T05:49:42.989Z,26.67
2023-02-18T05:52:14.296Z,26.95
2023-02-18T05:54:43.940Z,28.27
2023-02-18T05:57:16.313Z,33.65
2023-02-18T05:59:45.993Z,29.77
2023-02-18T06:02:15.674Z,28.25
2023-02-18T06:04:45.276Z,28.60
2023-02-18T06:07:14.993Z,27.33
2023-02-18T06:09:44.607Z,28.80
2023-02-18T06:12:14.367Z,29.17
2023-02-18T06:14:44.630Z,28.02
2023-02-18T06:17:17.919Z,26.25
2023-02-18T06:19:48.093Z,27.52
2023-02-18T06:22:17.794Z,27.58
2023-02-18T06:24:47.498Z,27.15
2023-02-18T06:27:17.216Z,25.02
2023-02-18T06:29:46.883Z,25.50
2023-02-18T06:32:18.263Z,25.50
2023-02-18T06:34:47.944Z,25.17
2023-02-18T06:37:17.595Z,25.95
2023-02-18T06:39:47.216Z,26.25
2023-02-18T06:42:16.854Z,26.52
2023-02-18T06:44:46.617Z,25.83
2023-02-18T06:47:16.619Z,28.38
2023-02-18T06:49:46.237Z,26.50
2023-02-18T06:52:15.864Z,26.20
2023-02-18T06:54:45.578Z,25.52
2023-02-18T06:57:15.225Z,25.23
2023-02-18T06:59:44.915Z,26.67
2023-02-18T07:02:16.343Z,25.90
2023-02-18T07:04:47.670Z,24.15
2023-02-18T07:07:17.295Z,25.25
2023-02-18T07:09:47.048Z,24.60
2023-02-18T07:12:16.640Z,23.85
2023-02-18T07:14:46.257Z,24.63
2023-02-18T07:17:16.500Z,26.15
2023-02-18T07:19:46.100Z,25.30
2023-02-18T07:22:15.897Z,27.42
2023-02-18T07:24:47.202Z,24.15
2023-02-18T07:27:16.783Z,24.83
2023-02-18T07:29:46.432Z,24.13
2023-02-18T07:32:17.310Z,24.63
2023-02-18T07:34:47.125Z,23.08
2023-02-18T07:37:16.697Z,23.98
2023-02-18T07:39:48.104Z,23.35
2023-02-18T07:42:17.738Z,22.70
2023-02-18T07:44:47.368Z,23.58
2023-02-18T07:50:08.297Z,23.48
2023-02-18T07:52:37.902Z,22.30
2023-02-18T07:55:07.710Z,23.65
2023-02-18T07:57:56.975Z,22.73
2023-02-18T08:00:26.998Z,21.70
2023-02-18T08:02:56.643Z,24.13
2023-02-18T08:05:26.345Z,24.08
2023-02-18T08:07:55.926Z,23.50
2023-02-18T08:10:25.627Z,22.70
2023-02-18T08:12:55.295Z,23.05
2023-02-18T08:15:24.897Z,24.27
2023-02-18T08:17:55.327Z,23.33
2023-02-18T08:20:25.120Z,23.20
2023-02-18T08:22:54.691Z,22.20
2023-02-18T08:25:29.422Z,22.55
2023-02-18T08:27:59.535Z,21.70
2023-02-18T08:30:29.542Z,22.38
2023-02-18T08:32:59.335Z,22.00
2023-02-18T08:35:28.997Z,22.02
2023-02-18T08:37:58.690Z,22.15
2023-02-18T08:40:28.383Z,22.25
2023-02-18T08:42:58.025Z,22.52
2023-02-18T08:45:27.773Z,23.15
2023-02-18T08:48:16.853Z,22.42
2023-02-18T08:50:48.071Z,21.88
2023-02-18T08:53:18.444Z,21.52
2023-02-18T08:55:48.158Z,21.33
2023-02-18T08:58:19.053Z,20.77
2023-02-18T09:00:49.259Z,22.67
2023-02-18T09:03:19.204Z,20.77
2023-02-18T09:05:48.964Z,20.08
2023-02-18T09:08:18.495Z,21.10
2023-02-18T09:10:48.045Z,20.52
2023-02-18T09:13:17.710Z,20.90
2023-02-18T09:15:47.367Z,21.30
2023-02-18T09:18:16.999Z,20.98
2023-02-18T09:20:46.778Z,20.65
2023-02-18T09:23:17.410Z,20.05
2023-02-18T09:25:47.004Z,20.83
2023-02-18T09:28:16.706Z,21.05
2023-02-18T09:30:46.446Z,20.10
2023-02-18T09:33:16.344Z,20.10
2023-02-18T09:35:47.897Z,20.60
2023-02-18T09:38:20.045Z,20.02
2023-02-18T09:40:55.585Z,19.90
2023-02-18T09:43:35.647Z,19.02
2023-02-18T09:46:09.310Z,20.13
2023-02-18T09:48:40.444Z,18.73
2023-02-18T09:51:16.704Z,19.50
2023-02-18T09:53:48.675Z,18.80
2023-02-18T09:56:31.186Z,19.38
2023-02-18T09:59:05.958Z,19.15
2023-02-18T10:01:42.178Z,19.30
2023-02-18T10:04:20.765Z,19.83
2023-02-18T10:06:53.994Z,18.50
2023-02-18T10:09:35.785Z,19.40
2023-02-18T10:12:26.447Z,18.73
2023-02-18T10:14:58.959Z,19.13
2023-02-18T10:17:32.409Z,18.92
2023-02-18T10:20:06.172Z,18.65
2023-02-18T10:22:39.666Z,18.83
2023-02-18T10:25:09.803Z,18.48
2023-02-18T10:27:42.966Z,18.80
2023-02-18T10:30:38.132Z,19.10
2023-02-18T10:33:41.351Z,18.05
2023-02-18T10:36:50.052Z,17.50
2023-02-18T10:39:35.304Z,18.38
2023-02-18T10:42:44.036Z,17.45
2023-02-18T10:45:45.725Z,17.98
2023-02-18T10:48:40.016Z,19.80
2023-02-18T10:51:25.296Z,19.20
2023-02-18T10:53:56.522Z,20.45
2023-02-18T10:56:42.889Z,20.15
2023-02-18T10:59:21.958Z,20.83
2023-02-18T11:02:06.817Z,20.35
2023-02-18T11:04:47.750Z,20.85
2023-02-18T11:07:32.000Z,19.65
2023-02-18T11:10:04.033Z,22.55
2023-02-18T11:12:51.250Z,23.55
2023-02-18T11:15:25.995Z,22.90
2023-02-18T11:17:58.915Z,22.13
2023-02-18T11:20:34.084Z,23.45
2023-02-18T11:23:23.816Z,22.25
2023-02-18T11:26:09.289Z,26.20
2023-02-18T11:28:50.745Z,27.73
2023-02-18T11:31:27.451Z,25.52
2023-02-18T11:34:01.612Z,26.70
2023-02-18T11:36:35.247Z,28.05
2023-02-18T11:39:29.396Z,27.83
2023-02-18T11:42:03.196Z,27.45
2023-02-18T11:44:38.039Z,27.55
2023-02-18T11:47:22.464Z,26.58
2023-02-18T11:50:24.254Z,25.40
2023-02-18T11:52:56.473Z,25.88
2023-02-18T11:55:32.708Z,26.70
2023-02-18T11:58:10.370Z,26.98
2023-02-18T12:00:53.512Z,26.65
2023-02-18T12:04:02.431Z,25.02
2023-02-18T12:06:55.496Z,26.60
2023-02-18T12:09:38.676Z,26.70
2023-02-18T12:12:39.398Z,26.80
2023-02-18T12:15:11.859Z,26.10
2023-02-18T12:18:14.449Z,27.58
2023-02-18T12:21:01.557Z,27.55
2023-02-18T12:23:54.553Z,28.57
2023-02-18T12:26:49.614Z,28.42
2023-02-18T12:29:58.455Z,28.77
2023-02-18T12:33:07.199Z,30.60
2023-02-18T12:36:04.174Z,28.95
2023-02-18T12:39:13.625Z,28.73
2023-02-18T12:42:16.378Z,29.70
2023-02-18T12:45:25.708Z,28.25
2023-02-18T12:48:34.691Z,29.10
2023-02-18T12:51:43.419Z,29.63
2023-02-18T12:54:53.239Z,30.77
2023-02-18T12:57:41.599Z,31.65
2023-02-18T13:00:45.357Z,28.15
2023-02-18T13:03:54.118Z,29.60
2023-02-18T13:06:47.264Z,28.48
2023-02-18T13:09:43.394Z,29.55
2023-02-18T13:12:45.976Z,30.50
2023-02-18T13:15:40.136Z,32.13
2023-02-18T13:18:24.020Z,30.67
2023-02-18T13:21:00.479Z,32.22
2023-02-18T13:23:37.952Z,31.88
2023-02-18T13:26:12.097Z,32.20
2023-02-18T13:29:12.335Z,31.83
2023-02-18T13:32:15.077Z,32.67
2023-02-18T13:35:06.819Z,34.25
2023-02-18T13:38:11.285Z,34.17
2023-02-18T13:40:44.736Z,34.83
2023-02-18T13:43:35.738Z,33.95
2023-02-18T13:46:25.644Z,35.63
2023-02-18T13:49:07.613Z,33.90
2023-02-18T13:51:50.522Z,34.45
2023-02-18T13:54:31.469Z,34.92
2023-02-18T13:57:21.414Z,34.95
2023-02-18T14:00:04.519Z,32.97
2023-02-18T14:02:38.972Z,35.42
2023-02-18T14:05:25.870Z,35.97
2023-02-18T14:08:17.652Z,34.58
2023-02-18T14:11:26.724Z,37.03
2023-02-18T14:14:36.540Z,43.25
2023-02-18T14:17:32.687Z,43.00
2023-02-18T14:20:46.092Z,38.88
2023-02-18T14:23:43.172Z,36.65
2023-02-18T14:26:33.711Z,35.97
2023-02-18T14:29:13.055Z,36.70
2023-02-18T14:31:59.429Z,34.97
2023-02-18T14:34:51.584Z,35.20
2023-02-18T14:38:00.481Z,35.90
2023-02-18T14:41:09.594Z,34.95
2023-02-18T14:44:12.640Z,36.38
2023-02-18T14:47:13.302Z,34.30
2023-02-18T14:49:52.493Z,33.15
2023-02-18T14:52:51.392Z,34.55
2023-02-18T14:55:34.472Z,34.50
2023-02-18T14:58:10.480Z,34.20
2023-02-18T15:00:45.435Z,35.58
2023-02-18T15:03:21.003Z,34.95
2023-02-18T15:05:53.280Z,33.55
2023-02-18T15:08:27.869Z,32.85
2023-02-18T15:11:08.493Z,31.42
2023-02-18T15:13:47.259Z,33.45
2023-02-18T15:16:35.678Z,33.42
2023-02-18T15:19:10.743Z,33.78
2023-02-18T15:21:47.945Z,33.30
2023-02-18T15:24:40.600Z,31.65
2023-02-18T15:27:32.277Z,33.08
2023-02-18T15:30:32.589Z,32.80
2023-02-18T15:33:03.402Z,32.85
2023-02-18T15:35:35.062Z,34.15
2023-02-18T15:38:06.258Z,35.65
2023-02-18T15:40:39.954Z,34.42
2023-02-18T15:43:13.303Z,32.60
2023-02-18T15:45:46.827Z,34.22
2023-02-18T15:48:46.873Z,32.92
2023-02-18T15:51:23.855Z,34.85
2023-02-18T15:53:58.108Z,34.05
2023-02-18T15:56:39.739Z,33.35
2023-02-18T15:59:32.239Z,34.65
2023-02-18T16:02:26.262Z,35.67
2023-02-18T16:05:05.154Z,34.17
2023-02-18T16:07:51.291Z,35.10
2023-02-18T16:10:38.666Z,35.90
2023-02-18T16:13:08.585Z,35.92
2023-02-18T16:15:43.675Z,35.08
2023-02-18T16:18:43.656Z,35.60
2023-02-18T16:21:32.236Z,35.92
2023-02-18T16:24:04.274Z,35.38
2023-02-18T16:26:45.027Z,35.85
2023-02-18T16:29:18.466Z,34.17
2023-02-18T16:31:48.166Z,35.97
2023-02-18T16:34:19.304Z,34.47
2023-02-18T16:37:08.710Z,35.60
2023-02-18T16:39:38.448Z,34.60
2023-02-18T16:42:17.873Z,34.95
2023-02-18T16:44:49.734Z,34.75
2023-02-18T16:47:20.298Z,33.63
2023-02-18T16:49:53.292Z,34.97
2023-02-18T16:52:22.908Z,33.88
2023-02-18T16:54:55.085Z,34.50
2023-02-18T16:57:25.800Z,34.22
2023-02-18T16:59:55.730Z,33.67
2023-02-18T17:02:25.545Z,34.35
2023-02-18T17:04:59.103Z,35.38
2023-02-18T17:07:28.818Z,33.97
2023-02-18T17:09:58.492Z,33.05
2023-02-18T17:12:28.608Z,34.08
2023-02-18T17:14:58.233Z,34.65
2023-02-18T17:17:29.577Z,33.40
2023-02-18T17:19:59.380Z,37.05
2023-02-18T17:22:28.982Z,35.03
2023-02-18T17:24:58.584Z,33.70
2023-02-18T17:27:28.392Z,36.85
2023-02-18T17:29:58.143Z,35.80
2023-02-18T17:32:28.854Z,37.30
2023-02-18T17:34:58.536Z,38.10
2023-02-18T17:37:28.194Z,37.70
2023-02-18T17:39:58.107Z,36.63
2023-02-18T17:42:27.855Z,37.63
2023-02-18T17:44:57.589Z,37.92
2023-02-18T17:47:27.386Z,37.65
2023-02-18T17:49:57.006Z,38.42
2023-02-18T17:52:33.237Z,37.25
2023-02-18T17:55:02.870Z,36.30
2023-02-18T17:57:32.538Z,37.97
2023-02-18T18:00:02.541Z,38.25
2023-02-18T18:02:32.186Z,38.97
2023-02-18T18:05:01.912Z,37.67
2023-02-18T18:07:31.775Z,38.75
2023-02-18T18:10:01.434Z,38.38
2023-02-18T18:12:32.384Z,39.58
2023-02-18T18:15:04.544Z,37.38
2023-02-18T18:17:34.168Z,37.38
2023-02-18T18:20:03.921Z,37.92
2023-02-18T18:22:33.695Z,39.63
2023-02-18T18:25:03.376Z,39.55
2023-02-18T18:27:33.142Z,39.58
2023-02-18T18:30:03.510Z,38.33
2023-02-18T18:32:33.111Z,38.33
2023-02-18T18:35:02.760Z,37.25
2023-02-18T18:37:32.446Z,38.67
2023-02-18T18:40:02.037Z,38.65
2023-02-18T18:42:31.662Z,38.38
2023-02-18T18:45:01.357Z,38.47
2023-02-18T18:47:31.017Z,37.25
2023-02-18T18:50:00.635Z,37.38
2023-02-18T18:52:30.504Z,37.28
2023-02-18T18:55:00.141Z,36.60
2023-02-18T18:57:30.004Z,38.03
2023-02-18T19:00:00.388Z,38.00
2023-02-18T19:02:30.388Z,38.63
2023-02-18T19:05:00.041Z,39.13
2023-02-18T19:07:29.779Z,40.72
2023-02-18T19:09:59.525Z,38.97
2023-02-18T19:12:29.193Z,40.60
2023-02-18T19:14:58.853Z,39.55
2023-02-18T19:17:28.515Z,38.20
2023-02-18T19:19:58.350Z,39.03
2023-02-18T19:22:28.114Z,39.63
2023-02-18T19:24:57.821Z,40.20
2023-02-18T19:27:27.514Z,41.75
2023-02-18T19:29:58.091Z,42.50
2023-02-18T19:32:27.723Z,42.50
2023-02-18T19:34:57.341Z,40.78
2023-02-18T19:37:27.059Z,39.60
2023-02-18T19:39:56.724Z,41.05
2023-02-18T19:42:26.483Z,40.33
2023-02-18T19:44:57.522Z,41.33
2023-02-18T19:47:29.187Z,40.72
2023-02-18T19:50:01.511Z,40.53
2023-02-18T19:52:31.271Z,40.80
2023-02-18T19:55:01.022Z,40.47
2023-02-18T19:57:30.758Z,39.60
2023-02-18T20:00:00.475Z,40.13
2023-02-18T20:02:30.344Z,38.97
2023-02-18T20:05:03.451Z,41.08
2023-02-18T20:07:33.488Z,40.63
2023-02-18T20:10:03.108Z,39.65
2023-02-18T20:12:32.844Z,41.50
2023-02-18T20:15:02.558Z,39.85
2023-02-18T20:17:32.282Z,39.70
2023-02-18T20:20:02.159Z,40.42
2023-02-18T20:22:31.798Z,38.03
2023-02-18T20:25:02.055Z,39.10
2023-02-18T20:27:31.776Z,39.92
2023-02-18T20:30:01.754Z,41.17
2023-02-18T20:32:31.825Z,42.03
2023-02-18T20:35:02.291Z,41.15
2023-02-18T20:37:32.293Z,40.38
2023-02-18T20:40:01.932Z,38.78
2023-02-18T20:42:31.590Z,39.78
2023-02-18T20:45:01.340Z,39.20
2023-02-18T20:47:31.049Z,38.33
2023-02-18T20:50:00.767Z,38.55
2023-02-18T20:52:31.526Z,39.00
2023-02-18T20:55:02.669Z,38.33
2023-02-18T20:57:32.341Z,38.95
2023-02-18T21:00:01.984Z,39.53
2023-02-18T21:02:32.481Z,39.58
2023-02-18T21:05:02.176Z,41.63
2023-02-18T21:07:32.097Z,39.35
2023-02-18T21:10:01.801Z,41.85
2023-02-18T21:12:31.451Z,42.38
2023-02-18T21:15:01.058Z,44.58
2023-02-18T21:17:30.835Z,44.20
2023-02-18T21:20:02.470Z,42.63
2023-02-18T21:22:32.085Z,45.40
2023-02-18T21:25:02.152Z,43.17
2023-02-18T21:27:31.735Z,43.92
2023-02-18T21:30:01.944Z,44.78
2023-02-18T21:32:31.645Z,43.83
2023-02-18T21:35:01.308Z,42.08
2023-02-18T21:37:31.049Z,45.40
2023-02-18T21:40:01.971Z,43.22
2023-02-18T21:42:32.345Z,44.17
2023-02-18T21:45:02.662Z,43.08
2023-02-18T21:47:33.360Z,44.33
2023-02-18T21:50:03.058Z,42.70
2023-02-18T21:52:33.961Z,43.47
2023-02-18T21:55:03.713Z,41.13
2023-02-18T21:57:34.024Z,42.92
2023-02-18T22:00:14.715Z,42.35
2023-02-18T22:02:49.070Z,42.92
2023-02-18T22:05:18.681Z,42.45
2023-02-18T22:07:48.538Z,43.08
2023-02-18T22:10:18.147Z,44.53
2023-02-18T22:12:47.840Z,45.30
2023-02-18T22:15:17.529Z,42.83
2023-02-18T22:17:47.186Z,43.00
2023-02-18T22:20:16.999Z,43.08
2023-02-18T22:22:46.605Z,43.58
2023-02-18T22:25:16.278Z,42.60
2023-02-18T22:27:46.006Z,42.55
2023-02-18T22:30:15.758Z,44.30
2023-02-18T22:32:45.479Z,45.70
2023-02-18T22:35:16.646Z,44.78
2023-02-18T22:37:46.573Z,45.10
2023-02-18T22:40:16.268Z,44.80
2023-02-18T22:42:45.888Z,45.38
2023-02-18T22:45:15.562Z,45.05
2023-02-18T22:47:45.557Z,45.17
2023-02-18T22:50:15.213Z,45.97
2023-02-18T22:52:44.996Z,45.58
2023-02-18T22:55:14.755Z,46.08
2023-02-18T22:57:44.473Z,44.97
2023-02-18T23:00:14.972Z,46.83
2023-02-18T23:02:44.762Z,47.80
2023-02-18T23:05:15.105Z,45.63
2023-02-18T23:07:44.698Z,46.40
2023-02-18T23:10:14.643Z,43.83
2023-02-18T23:12:44.193Z,45.05
2023-02-18T23:15:14.268Z,45.25
2023-02-18T23:17:43.963Z,47.58
2023-02-18T23:20:13.523Z,45.53
2023-02-18T23:22:43.774Z,46.45
2023-02-18T23:25:13.824Z,47.05
2023-02-18T23:27:43.334Z,48.42
2023-02-18T23:30:13.652Z,48.35
2023-02-18T23:32:43.341Z,50.15
2023-02-18T23:37:52.994Z,50.38
2023-02-18T23:40:22.769Z,52.13
2023-02-18T23:42:55.077Z,51.22
2023-02-18T23:45:25.156Z,52.88
2023-02-18T23:47:54.815Z,53.30
2023-02-18T23:50:24.597Z,53.38
2023-02-18T23:52:55.116Z,54.15
2023-02-18T23:55:24.691Z,53.33
2023-02-18T23:57:54.291Z,56.25
